createdAt,value
2019-02-03T00:02:09.295Z,48.48
2019-02-03T00:04:35.150Z,51.73
2019-02-03T00:07:03.401Z,48.40
2019-02-03T00:09:28.733Z,48.15
2019-02-03T00:11:54.571Z,59.27
2019-02-03T00:14:20.410Z,51.63
2019-02-03T00:16:46.257Z,57.50
2019-02-03T00:19:12.465Z,53.73
2019-02-03T00:21:38.397Z,47.83
2019-02-03T00:24:04.305Z,47.70
2019-02-03T00:26:30.657Z,52.23
2019-02-03T00:28:56.469Z,59.25
2019-02-03T00:31:22.314Z,60.47
2019-02-03T00:33:48.207Z,69.87
2019-02-03T00:36:14.464Z,75.30
2019-02-03T00:38:40.382Z,66.27
2019-02-03T00:41:06.285Z,88.20
2019-02-03T00:43:32.442Z,63.73
2019-02-03T00:45:58.538Z,91.22
2019-02-03T00:48:24.598Z,89.07
2019-02-03T00:50:50.429Z,79.10
2019-02-03T00:53:16.354Z,112.50
2019-02-03T00:55:42.181Z,165.30
2019-02-03T00:58:08.390Z,57.57
2019-02-03T01:00:34.345Z,65.42
2019-02-03T01:03:00.166Z,99.97
2019-02-03T01:05:26.221Z,52.57
2019-02-03T01:07:52.146Z,70.65
2019-02-03T01:10:22.278Z,53.17
2019-02-03T01:12:48.457Z,46.98
2019-02-03T01:15:14.650Z,52.60
2019-02-03T01:17:40.524Z,46.55
2019-02-03T01:20:10.121Z,56.27
2019-02-03T01:22:37.751Z,52.65
2019-02-03T01:25:07.689Z,54.05
2019-02-03T01:27:33.633Z,42.60
2019-02-03T01:29:59.436Z,52.73
2019-02-03T01:32:26.158Z,63.38
2019-02-03T01:34:52.107Z,46.87
2019-02-03T01:37:17.927Z,50.70
2019-02-03T01:39:44.114Z,53.67
2019-02-03T01:42:09.937Z,60.35
2019-02-03T01:44:35.729Z,59.63
2019-02-03T01:47:01.869Z,64.83
2019-02-03T01:49:28.013Z,76.95
2019-02-03T01:51:53.835Z,98.15
2019-02-03T01:54:20.111Z,78.13
2019-02-03T01:56:45.956Z,135.07
2019-02-03T01:59:11.804Z,164.13
2019-02-03T02:01:37.614Z,179.13
2019-02-03T02:04:03.993Z,159.22
2019-02-03T02:06:29.821Z,110.17
2019-02-03T02:08:55.892Z,164.97
2019-02-03T02:11:22.026Z,80.35
2019-02-03T02:13:48.186Z,174.82
2019-02-03T02:16:14.290Z,74.37
2019-02-03T02:18:40.204Z,62.67
2019-02-03T02:21:06.438Z,155.53
2019-02-03T02:23:32.378Z,80.83
2019-02-03T02:25:58.460Z,119.87
2019-02-03T02:28:24.291Z,131.85
2019-02-03T02:30:50.239Z,75.17
2019-02-03T02:33:16.309Z,136.63
2019-02-03T02:35:42.122Z,205.35
2019-02-03T02:38:08.353Z,171.20
2019-02-03T02:40:34.181Z,105.72
2019-02-03T02:43:00.025Z,137.70
2019-02-03T02:45:26.105Z,130.27
2019-02-03T02:47:51.963Z,191.25
2019-02-03T02:50:26.962Z,89.17
2019-02-03T02:52:53.308Z,131.12
2019-02-03T02:55:19.196Z,201.40
2019-02-03T02:57:45.326Z,155.70
2019-02-03T03:00:17.315Z,109.93
2019-02-03T03:02:42.290Z,142.03
2019-02-03T03:05:09.384Z,75.70
2019-02-03T03:07:35.302Z,99.03
2019-02-03T03:10:01.113Z,87.93
2019-02-03T03:12:26.962Z,84.37
2019-02-03T03:14:53.071Z,146.77
2019-02-03T03:17:18.892Z,72.43
2019-02-03T03:19:44.958Z,72.47
2019-02-03T03:22:10.825Z,114.28
2019-02-03T03:24:39.443Z,124.33
2019-02-03T03:27:05.267Z,126.53
2019-02-03T03:29:34.069Z,131.97
2019-02-03T03:32:00.229Z,124.55
2019-02-03T03:34:28.804Z,213.37
2019-02-03T03:36:54.955Z,166.37
2019-02-03T03:39:24.106Z,115.10
2019-02-03T03:41:49.926Z,116.17
2019-02-03T03:44:18.873Z,103.47
2019-02-03T03:46:44.728Z,101.15
2019-02-03T03:49:13.534Z,60.23
2019-02-03T03:51:39.399Z,89.92
2019-02-03T03:54:05.198Z,78.03
2019-02-03T03:56:31.030Z,65.20
2019-02-03T03:58:56.844Z,107.07
2019-02-03T04:01:22.957Z,122.53
2019-02-03T04:03:48.784Z,110.65
2019-02-03T04:06:17.684Z,95.17
2019-02-03T04:08:45.592Z,204.53
2019-02-03T04:11:14.342Z,90.83
2019-02-03T04:13:40.189Z,55.92
2019-02-03T04:16:08.774Z,112.70
2019-02-03T04:18:34.608Z,79.07
2019-02-03T04:21:25.597Z,95.12
2019-02-03T04:23:51.439Z,131.03
2019-02-03T04:26:17.531Z,119.37
2019-02-03T04:28:43.370Z,78.22
2019-02-03T04:31:09.239Z,111.20
2019-02-03T04:33:35.655Z,99.83
2019-02-03T04:36:01.475Z,198.13
2019-02-03T04:38:27.627Z,96.80
2019-02-03T04:40:53.444Z,153.95
2019-02-03T04:43:19.260Z,168.93
2019-02-03T04:45:45.432Z,138.73
2019-02-03T04:48:11.256Z,67.00
2019-02-03T04:50:37.075Z,103.67
2019-02-03T04:53:03.315Z,166.32
2019-02-03T04:55:49.426Z,95.63
2019-02-03T04:58:15.253Z,67.65
2019-02-03T05:00:41.052Z,93.77
2019-02-03T05:03:07.185Z,131.53
2019-02-03T05:05:33.679Z,101.05
2019-02-03T05:07:59.492Z,176.20
2019-02-03T05:10:25.625Z,135.20
2019-02-03T05:12:51.717Z,89.80
2019-02-03T05:15:19.468Z,110.75
2019-02-03T05:17:45.786Z,46.80
2019-02-03T05:20:14.567Z,88.97
2019-02-03T05:22:40.901Z,120.53
2019-02-03T05:25:09.428Z,59.40
2019-02-03T05:27:35.282Z,50.70
2019-02-03T05:30:01.298Z,52.73
2019-02-03T05:32:27.178Z,43.28
2019-02-03T05:34:52.988Z,37.40
2019-02-03T05:37:18.812Z,31.87
2019-02-03T05:39:44.657Z,41.13
2019-02-03T05:42:10.805Z,34.18
2019-02-03T05:44:36.676Z,35.20
2019-02-03T05:47:02.846Z,45.93
2019-02-03T05:49:28.676Z,50.48
2019-02-03T05:51:54.490Z,45.77
2019-02-03T05:54:20.345Z,44.30
2019-02-03T05:56:46.170Z,41.30
2019-02-03T05:59:12.173Z,48.00
2019-02-03T06:01:38.295Z,47.57
2019-02-03T06:04:04.222Z,41.55
2019-02-03T06:06:30.060Z,46.13
2019-02-03T06:08:55.865Z,43.93
2019-02-03T06:11:21.973Z,46.50
2019-02-03T06:13:47.827Z,49.80
2019-02-03T06:16:13.680Z,53.30
2019-02-03T06:18:39.900Z,49.75
2019-02-03T06:21:05.735Z,44.70
2019-02-03T06:23:31.617Z,41.83
2019-02-03T06:25:57.450Z,50.00
2019-02-03T06:28:26.708Z,48.33
2019-02-03T06:30:56.326Z,50.85
2019-02-03T06:33:22.274Z,57.83
2019-02-03T06:35:48.237Z,59.55
2019-02-03T06:38:14.041Z,59.63
2019-02-03T06:40:39.894Z,70.83
2019-02-03T06:43:08.568Z,60.77
2019-02-03T06:45:39.053Z,69.62
2019-02-03T06:48:05.116Z,70.47
2019-02-03T06:50:31.212Z,67.50
2019-02-03T06:52:57.170Z,72.42
2019-02-03T06:55:22.999Z,73.67
2019-02-03T06:57:48.822Z,79.77
2019-02-03T07:00:15.465Z,76.07
2019-02-03T07:02:41.315Z,73.17
2019-02-03T07:05:10.385Z,82.33
2019-02-03T07:07:36.482Z,67.80
2019-02-03T07:10:26.012Z,67.72
2019-02-03T07:12:52.088Z,78.62
2019-02-03T07:15:18.282Z,67.50
2019-02-03T07:17:44.474Z,75.70
2019-02-03T07:20:12.332Z,74.07
2019-02-03T07:22:38.267Z,69.50
2019-02-03T07:25:04.365Z,75.47
2019-02-03T07:27:30.211Z,70.55
2019-02-03T07:29:56.276Z,83.53
2019-02-03T07:32:22.109Z,68.52
2019-02-03T07:34:47.961Z,83.93
2019-02-03T07:37:13.778Z,78.07
2019-02-03T07:39:40.166Z,70.42
2019-02-03T07:42:06.268Z,75.52
2019-02-03T07:44:32.358Z,68.72
2019-02-03T07:46:58.706Z,80.70
2019-02-03T07:49:27.621Z,74.77
2019-02-03T07:51:53.466Z,82.70
2019-02-03T07:54:19.305Z,72.77
2019-02-03T07:56:45.143Z,80.20
2019-02-03T07:59:17.749Z,84.50
2019-02-03T08:01:43.863Z,85.70
2019-02-03T08:04:09.716Z,75.97
2019-02-03T08:06:35.815Z,72.20
2019-02-03T08:09:02.008Z,66.00
2019-02-03T08:11:28.123Z,68.33
2019-02-03T08:13:53.999Z,80.17
2019-02-03T08:16:20.125Z,76.12
2019-02-03T08:18:45.930Z,64.77
2019-02-03T08:21:11.811Z,67.23
2019-02-03T08:23:37.621Z,83.47
2019-02-03T08:26:03.464Z,79.40
2019-02-03T08:28:29.541Z,64.60
2019-02-03T08:30:55.634Z,66.75
2019-02-03T08:33:25.032Z,66.62
2019-02-03T08:35:50.859Z,68.85
2019-02-03T08:38:19.730Z,72.47
2019-02-03T08:40:45.905Z,77.67
2019-02-03T08:43:14.565Z,61.75
2019-02-03T08:45:40.413Z,55.98
2019-02-03T08:48:06.749Z,72.43
2019-02-03T08:50:32.887Z,66.62
2019-02-03T08:52:58.709Z,64.20
2019-02-03T08:55:27.798Z,69.60
2019-02-03T08:57:53.647Z,72.82
2019-02-03T09:00:25.632Z,60.03
2019-02-03T09:02:51.432Z,61.25
2019-02-03T09:05:17.668Z,65.33
2019-02-03T09:07:44.314Z,55.30
2019-02-03T09:10:13.136Z,60.45
2019-02-03T09:12:39.107Z,59.35
2019-02-03T09:15:08.635Z,60.78
2019-02-03T09:17:34.443Z,164.15
2019-02-03T09:20:00.365Z,59.20
2019-02-03T09:22:26.799Z,58.20
2019-02-03T09:24:52.930Z,54.48
2019-02-03T09:27:19.018Z,51.90
2019-02-03T09:29:44.875Z,56.40
2019-02-03T09:32:11.337Z,50.23
2019-02-03T09:34:37.682Z,55.03
2019-02-03T09:37:06.429Z,47.05
2019-02-03T09:39:32.759Z,55.98
2019-02-03T09:42:01.663Z,46.48
2019-02-03T09:44:27.774Z,50.35
2019-02-03T09:46:56.673Z,43.52
2019-02-03T09:49:22.753Z,51.28
2019-02-03T09:51:51.946Z,45.65
2019-02-03T09:54:17.789Z,46.65
2019-02-03T09:56:46.644Z,51.87
2019-02-03T09:59:13.045Z,49.00
2019-02-03T10:01:38.983Z,58.73
2019-02-03T10:04:05.208Z,45.20
2019-02-03T10:06:31.044Z,32.42
2019-02-03T10:08:56.863Z,42.33
2019-02-03T10:11:23.147Z,40.90
2019-02-03T10:13:50.696Z,46.08
2019-02-03T10:16:16.537Z,48.92
2019-02-03T10:18:47.421Z,38.73
2019-02-03T10:21:13.534Z,38.02
2019-02-03T10:23:42.489Z,40.67
2019-02-03T10:26:08.298Z,35.13
2019-02-03T10:28:37.172Z,34.83
2019-02-03T10:31:03.270Z,40.48
2019-02-03T10:33:29.697Z,32.67
2019-02-03T10:35:55.503Z,31.90
2019-02-03T10:38:21.373Z,29.30
2019-02-03T10:40:47.288Z,34.47
2019-02-03T10:43:13.409Z,35.53
2019-02-03T10:45:42.277Z,32.55
2019-02-03T10:48:08.378Z,35.75
2019-02-03T10:50:37.464Z,40.33
2019-02-03T10:53:05.485Z,33.75
2019-02-03T10:55:31.312Z,32.80
2019-02-03T10:57:57.230Z,31.93
2019-02-03T11:00:29.306Z,35.50
2019-02-03T11:02:55.143Z,34.80
2019-02-03T11:05:23.714Z,29.73
2019-02-03T11:07:50.264Z,28.52
2019-02-03T11:10:22.711Z,33.30
2019-02-03T11:12:48.797Z,29.82
2019-02-03T11:15:15.559Z,32.15
2019-02-03T11:17:44.543Z,33.80
2019-02-03T11:20:14.070Z,29.70
2019-02-03T11:22:40.317Z,32.23
2019-02-03T11:25:07.640Z,33.10
2019-02-03T11:27:33.481Z,29.57
2019-02-03T11:29:59.332Z,29.57
2019-02-03T11:32:28.352Z,36.40
2019-02-03T11:34:54.168Z,34.95
2019-02-03T11:37:23.005Z,37.90
2019-02-03T11:39:48.851Z,37.90
2019-02-03T11:42:17.421Z,34.63
2019-02-03T11:44:43.561Z,33.55
2019-02-03T11:47:12.436Z,41.73
2019-02-03T11:49:38.271Z,33.95
2019-02-03T11:52:04.458Z,44.03
2019-02-03T11:54:30.596Z,29.75
2019-02-03T11:56:56.683Z,31.23
2019-02-03T11:59:22.526Z,32.48
2019-02-03T12:01:48.670Z,40.30
2019-02-03T12:04:16.733Z,36.95
2019-02-03T12:06:42.578Z,31.30
2019-02-03T12:09:13.374Z,34.77
2019-02-03T12:11:39.211Z,34.45
2019-02-03T12:14:08.016Z,32.30
2019-02-03T12:16:34.158Z,45.73
2019-02-03T12:19:03.007Z,34.80
2019-02-03T12:21:30.218Z,32.90
2019-02-03T12:23:56.311Z,31.90
2019-02-03T12:26:23.809Z,34.13
2019-02-03T12:28:49.666Z,33.05
2019-02-03T12:31:15.562Z,35.43
2019-02-03T12:33:41.684Z,28.27
2019-02-03T12:36:07.511Z,30.62
2019-02-03T12:38:33.657Z,43.80
2019-02-03T12:41:01.685Z,27.50
2019-02-03T12:43:27.538Z,34.80
2019-02-03T12:45:56.974Z,37.63
2019-02-03T12:48:22.810Z,39.80
2019-02-03T12:50:51.788Z,35.52
2019-02-03T12:53:18.121Z,37.80
2019-02-03T12:55:46.781Z,31.62
2019-02-03T12:58:12.892Z,51.25
2019-02-03T13:00:42.004Z,35.48
2019-02-03T13:03:07.949Z,45.45
2019-02-03T13:05:34.023Z,39.93
2019-02-03T13:08:00.461Z,46.37
2019-02-03T13:10:31.604Z,37.23
2019-02-03T13:12:57.548Z,38.30
2019-02-03T13:15:48.212Z,44.73
2019-02-03T13:18:14.034Z,44.08
2019-02-03T13:20:42.594Z,45.93
2019-02-03T13:23:08.419Z,48.33
2019-02-03T13:25:34.251Z,43.70
2019-02-03T13:28:00.480Z,49.97
2019-02-03T13:30:30.120Z,42.20
2019-02-03T13:32:56.244Z,43.45
2019-02-03T13:35:22.549Z,43.58
2019-02-03T13:37:48.639Z,53.97
2019-02-03T13:40:15.757Z,49.38
2019-02-03T13:42:41.979Z,42.80
2019-02-03T13:45:20.560Z,42.35
2019-02-03T13:47:39.088Z,44.75
2019-02-03T13:50:08.752Z,47.20
2019-02-03T13:52:34.611Z,43.25
2019-02-03T13:55:00.434Z,47.33
2019-02-03T13:57:26.554Z,49.07
2019-02-03T13:59:52.365Z,49.20
2019-02-03T14:02:18.547Z,43.33
2019-02-03T14:04:44.504Z,47.73
2019-02-03T14:07:10.318Z,51.17
2019-02-03T14:09:36.137Z,48.00
2019-02-03T14:12:02.405Z,49.10
2019-02-03T14:14:28.217Z,43.63
2019-02-03T14:16:54.068Z,39.50
2019-02-03T14:19:19.921Z,40.87
2019-02-03T14:21:45.746Z,42.37
2019-02-03T14:24:11.574Z,54.67
2019-02-03T14:26:37.757Z,51.68
2019-02-03T14:29:03.854Z,36.60
2019-02-03T14:31:29.989Z,39.75
2019-02-03T14:33:56.071Z,46.05
2019-02-03T14:36:21.913Z,41.30
2019-02-03T14:38:48.057Z,45.97
2019-02-03T14:41:13.886Z,47.20
2019-02-03T14:43:40.693Z,40.47
2019-02-03T14:46:06.793Z,43.73
2019-02-03T14:48:32.607Z,46.02
2019-02-03T14:50:58.466Z,42.53
2019-02-03T14:53:24.335Z,43.70
2019-02-03T14:55:52.025Z,52.67
2019-02-03T14:58:18.156Z,42.08
2019-02-03T15:00:45.948Z,48.28
2019-02-03T15:03:14.400Z,45.33
2019-02-03T15:05:40.520Z,46.68
2019-02-03T15:08:06.982Z,44.77
2019-02-03T15:10:32.902Z,49.53
2019-02-03T15:12:58.954Z,42.17
2019-02-03T15:15:27.077Z,37.70
2019-02-03T15:17:53.335Z,51.05
2019-02-03T15:20:21.468Z,42.20
2019-02-03T15:22:47.484Z,42.48
2019-02-03T15:25:13.836Z,38.50
2019-02-03T15:27:42.706Z,58.55
2019-02-03T15:30:19.050Z,48.92
2019-02-03T15:32:39.939Z,44.80
2019-02-03T15:35:08.332Z,43.57
2019-02-03T15:37:34.210Z,51.95
2019-02-03T15:40:00.104Z,46.20
2019-02-03T15:42:25.991Z,51.27
2019-02-03T15:44:52.146Z,41.83
2019-02-03T15:47:17.995Z,41.20
2019-02-03T15:49:44.096Z,39.50
2019-02-03T15:52:10.317Z,42.70
2019-02-03T15:54:38.970Z,45.08
2019-02-03T15:57:05.550Z,40.38
2019-02-03T15:59:34.190Z,43.63
2019-02-03T16:02:00.097Z,45.25
2019-02-03T16:04:27.474Z,44.13
2019-02-03T16:06:53.613Z,37.10
2019-02-03T16:09:19.419Z,36.42
2019-02-03T16:11:45.507Z,45.60
2019-02-03T16:14:11.366Z,37.65
2019-02-03T16:16:40.233Z,39.47
2019-02-03T16:19:12.480Z,39.67
2019-02-03T16:21:38.397Z,34.83
2019-02-03T16:24:05.056Z,33.30
2019-02-03T16:26:30.884Z,33.20
2019-02-03T16:28:57.378Z,25.88
2019-02-03T16:31:23.236Z,27.30
2019-02-03T16:33:49.440Z,29.60
2019-02-03T16:36:18.558Z,34.92
2019-02-03T16:38:44.680Z,173.85
2019-02-03T16:41:13.536Z,35.60
2019-02-03T16:43:48.629Z,36.55
2019-02-03T16:46:07.130Z,40.65
2019-02-03T16:48:33.261Z,27.33
2019-02-03T16:50:59.135Z,38.85
2019-02-03T16:53:25.509Z,39.05
2019-02-03T16:55:51.324Z,27.55
2019-02-03T16:58:19.971Z,22.80
2019-02-03T17:00:46.358Z,24.37
2019-02-03T17:03:15.251Z,26.95
2019-02-03T17:05:41.105Z,25.70
2019-02-03T17:08:09.965Z,26.03
2019-02-03T17:10:35.873Z,27.13
2019-02-03T17:13:04.967Z,30.23
2019-02-03T17:15:34.209Z,25.75
2019-02-03T17:18:00.117Z,34.13
2019-02-03T17:20:26.291Z,35.30
2019-02-03T17:22:52.336Z,31.95
2019-02-03T17:25:30.700Z,30.40
2019-02-03T17:27:56.903Z,33.85
2019-02-03T17:30:23.322Z,29.27
2019-02-03T17:32:49.621Z,34.20
2019-02-03T17:35:16.160Z,34.35
2019-02-03T17:37:42.414Z,30.95
2019-02-03T17:40:11.333Z,34.85
2019-02-03T17:42:37.283Z,27.93
2019-02-03T17:45:15.023Z,34.33
2019-02-03T17:47:41.243Z,33.80
2019-02-03T17:50:15.911Z,28.57
2019-02-03T17:52:41.957Z,34.95
2019-02-03T17:55:10.492Z,34.23
2019-02-03T17:57:36.592Z,33.58
2019-02-03T18:00:06.334Z,36.28
2019-02-03T18:02:33.890Z,34.95
2019-02-03T18:04:59.809Z,27.52
2019-02-03T18:07:26.131Z,29.67
2019-02-03T18:09:52.215Z,31.93
2019-02-03T18:12:18.150Z,31.27
2019-02-03T18:14:44.289Z,36.80
2019-02-03T18:17:10.117Z,28.50
2019-02-03T18:19:35.999Z,28.07
2019-02-03T18:22:01.830Z,24.50
2019-02-03T18:24:27.774Z,25.73
2019-02-03T18:26:53.721Z,20.63
2019-02-03T18:29:19.574Z,26.13
2019-02-03T18:31:45.383Z,15.30
2019-02-03T18:34:11.562Z,20.23
2019-02-03T18:36:37.405Z,12.95
2019-02-03T18:39:06.040Z,19.27
2019-02-03T18:41:31.906Z,21.48
2019-02-03T18:43:57.868Z,14.70
2019-02-03T18:46:23.715Z,20.43
2019-02-03T18:48:49.567Z,17.40
2019-02-03T18:51:15.669Z,19.30
2019-02-03T18:53:41.513Z,16.07
2019-02-03T18:56:07.439Z,16.77
2019-02-03T18:58:33.487Z,13.78
2019-02-03T19:00:59.318Z,23.53
2019-02-03T19:03:25.123Z,14.60
2019-02-03T19:05:51.410Z,13.80
2019-02-03T19:08:17.213Z,14.13
2019-02-03T19:10:43.365Z,15.77
2019-02-03T19:13:09.180Z,12.40
2019-02-03T19:15:35.143Z,10.27
2019-02-03T19:18:00.964Z,8.30
2019-02-03T19:20:32.054Z,11.17
2019-02-03T19:22:57.918Z,20.20
2019-02-03T19:25:24.051Z,11.63
2019-02-03T19:27:50.184Z,13.58
2019-02-03T19:30:18.624Z,13.90
2019-02-03T19:32:45.092Z,13.43
2019-02-03T19:35:13.251Z,15.32
2019-02-03T19:37:39.106Z,12.37
2019-02-03T19:40:08.770Z,10.60
2019-02-03T19:42:34.935Z,16.15
2019-02-03T19:45:00.874Z,10.48
2019-02-03T19:47:27.013Z,14.70
2019-02-03T19:49:52.874Z,15.45
2019-02-03T19:52:18.686Z,13.30
2019-02-03T19:54:46.937Z,15.03
2019-02-03T19:57:12.865Z,12.35
2019-02-03T19:59:46.571Z,14.00
2019-02-03T20:02:06.545Z,23.57
2019-02-03T20:04:32.398Z,20.90
2019-02-03T20:07:01.573Z,18.10
2019-02-03T20:09:27.696Z,14.10
2019-02-03T20:11:56.287Z,10.20
2019-02-03T20:14:22.128Z,11.55
2019-02-03T20:16:50.083Z,18.83
2019-02-03T20:19:15.962Z,10.43
2019-02-03T20:21:44.563Z,13.10
2019-02-03T20:24:10.432Z,14.63
2019-02-03T20:26:36.737Z,13.08
2019-02-03T20:29:02.954Z,11.40
2019-02-03T20:31:29.111Z,11.50
2019-02-03T20:33:58.005Z,7.97
2019-02-03T20:36:23.837Z,15.58
2019-02-03T20:38:51.179Z,13.03
2019-02-03T20:41:17.305Z,9.23
2019-02-03T20:43:46.638Z,15.45
2019-02-03T20:46:12.733Z,9.43
2019-02-03T20:48:41.748Z,8.53
2019-02-03T20:51:07.600Z,9.00
2019-02-03T20:53:36.208Z,9.50
2019-02-03T20:56:02.307Z,6.22
2019-02-03T20:58:31.517Z,12.00
2019-02-03T21:00:57.797Z,13.70
2019-02-03T21:03:23.632Z,11.10
2019-02-03T21:05:49.508Z,10.70
2019-02-03T21:08:15.465Z,8.03
2019-02-03T21:10:44.347Z,7.23
2019-02-03T21:13:11.565Z,9.65
2019-02-03T21:15:37.865Z,12.07
2019-02-03T21:18:04.211Z,15.50
2019-02-03T21:20:33.298Z,11.80
2019-02-03T21:22:59.720Z,13.90
2019-02-03T21:25:26.308Z,11.08
2019-02-03T21:27:52.277Z,11.35
2019-02-03T21:30:25.253Z,9.98
2019-02-03T21:32:51.403Z,15.40
2019-02-03T21:35:17.998Z,13.90
2019-02-03T21:37:43.840Z,16.42
2019-02-03T21:40:23.901Z,78.40
2019-02-03T21:42:49.774Z,16.80
2019-02-03T21:45:15.878Z,11.50
2019-02-03T21:47:41.711Z,11.40
2019-02-03T21:50:39.990Z,12.95
2019-02-03T21:53:05.815Z,11.93
2019-02-03T21:55:31.938Z,9.00
2019-02-03T21:57:57.757Z,9.75
2019-02-03T22:00:28.805Z,7.00
2019-02-03T22:02:55.004Z,8.58
2019-02-03T22:05:21.349Z,10.38
2019-02-03T22:07:47.269Z,8.65
2019-02-03T22:10:19.949Z,11.10
2019-02-03T22:12:46.012Z,10.00
2019-02-03T22:15:12.418Z,12.73
2019-02-03T22:17:38.281Z,11.53
2019-02-03T22:20:07.944Z,14.90
2019-02-03T22:22:34.528Z,9.10
2019-02-03T22:25:00.371Z,13.53
2019-02-03T22:27:26.215Z,11.87
2019-02-03T22:29:52.346Z,12.17
2019-02-03T22:32:18.166Z,9.15
2019-02-03T22:34:44.037Z,15.23
2019-02-03T22:37:10.138Z,16.03
2019-02-03T22:39:36.018Z,15.48
2019-02-03T22:42:02.119Z,13.73
2019-02-03T22:44:27.921Z,9.60
2019-02-03T22:46:53.758Z,11.53
2019-02-03T22:49:19.567Z,9.97
2019-02-03T22:51:45.982Z,14.43
2019-02-03T22:54:11.876Z,11.15
2019-02-03T22:56:37.713Z,17.23
2019-02-03T22:59:03.610Z,12.93
2019-02-03T23:01:29.632Z,11.00
2019-02-03T23:03:55.469Z,13.70
2019-02-03T23:06:21.410Z,17.23
2019-02-03T23:08:47.508Z,14.50
2019-02-03T23:11:13.942Z,11.65
2019-02-03T23:13:40.142Z,18.95
2019-02-03T23:16:06.086Z,11.65
2019-02-03T23:18:32.037Z,11.17
2019-02-03T23:20:58.183Z,12.00
2019-02-03T23:23:24.012Z,15.90
2019-02-03T23:25:49.849Z,15.10
2019-02-03T23:28:15.677Z,11.37
2019-02-03T23:30:42.026Z,9.78
2019-02-03T23:33:08.154Z,13.13
2019-02-03T23:35:33.990Z,25.10
2019-02-03T23:38:00.075Z,26.07
2019-02-03T23:40:26.006Z,20.10
2019-02-03T23:42:52.121Z,9.37
2019-02-03T23:45:18.087Z,12.15
2019-02-03T23:47:43.909Z,12.87
2019-02-03T23:50:17.631Z,13.33
2019-02-03T23:52:43.535Z,11.55
2019-02-03T23:55:09.490Z,15.00
2019-02-03T23:57:35.305Z,15.53
